sensor_id;sensor_type;location;lat;lon;timestamp;P1;durP1;ratioP1;P2;durP2;ratioP2
18259;SDS011;9256;52.236;5.712;2024-03-08T00:02:01;55.63;;;18.07;;
18259;SDS011;9256;52.236;5.712;2024-03-08T00:04:28;59.73;;;18.30;;
18259;SDS011;9256;52.236;5.712;2024-03-08T00:06:55;61.77;;;18.77;;
18259;SDS011;9256;52.236;5.712;2024-03-08T00:09:22;70.37;;;19.73;;
18259;SDS011;9256;52.236;5.712;2024-03-08T00:11:52;57.03;;;18.10;;
18259;SDS011;9256;52.236;5.712;2024-03-08T00:14:19;61.93;;;18.43;;
18259;SDS011;9256;52.236;5.712;2024-03-08T00:16:47;66.43;;;19.37;;
18259;SDS011;9256;52.236;5.712;2024-03-08T00:19:15;63.03;;;19.17;;
18259;SDS011;9256;52.236;5.712;2024-03-08T00:21:42;62.47;;;18.97;;
18259;SDS011;9256;52.236;5.712;2024-03-08T00:24:10;55.20;;;18.30;;
18259;SDS011;9256;52.236;5.712;2024-03-08T00:26:37;65.47;;;18.37;;
18259;SDS011;9256;52.236;5.712;2024-03-08T00:29:04;63.23;;;19.23;;
18259;SDS011;9256;52.236;5.712;2024-03-08T00:31:32;54.63;;;18.10;;
18259;SDS011;9256;52.236;5.712;2024-03-08T00:34:00;54.87;;;17.73;;
18259;SDS011;9256;52.236;5.712;2024-03-08T00:36:28;57.37;;;18.23;;
18259;SDS011;9256;52.236;5.712;2024-03-08T00:38:56;61.07;;;18.13;;
18259;SDS011;9256;52.236;5.712;2024-03-08T00:41:25;72.60;;;26.45;;
18259;SDS011;9256;52.236;5.712;2024-03-08T00:43:52;63.87;;;20.07;;
18259;SDS011;9256;52.236;5.712;2024-03-08T00:46:19;63.90;;;19.50;;
18259;SDS011;9256;52.236;5.712;2024-03-08T00:48:47;62.60;;;19.53;;
18259;SDS011;9256;52.236;5.712;2024-03-08T00:51:14;69.10;;;19.33;;
18259;SDS011;9256;52.236;5.712;2024-03-08T00:53:42;61.43;;;18.50;;
18259;SDS011;9256;52.236;5.712;2024-03-08T00:56:09;73.53;;;26.67;;
18259;SDS011;9256;52.236;5.712;2024-03-08T00:58:36;69.43;;;26.33;;
18259;SDS011;9256;52.236;5.712;2024-03-08T01:01:03;59.93;;;20.33;;
18259;SDS011;9256;52.236;5.712;2024-03-08T01:03:31;57.43;;;19.17;;
18259;SDS011;9256;52.236;5.712;2024-03-08T01:05:59;67.17;;;19.13;;
18259;SDS011;9256;52.236;5.712;2024-03-08T01:08:27;58.37;;;18.57;;
18259;SDS011;9256;52.236;5.712;2024-03-08T01:10:55;56.73;;;18.80;;
18259;SDS011;9256;52.236;5.712;2024-03-08T01:13:22;57.57;;;18.63;;
18259;SDS011;9256;52.236;5.712;2024-03-08T01:15:49;59.50;;;18.87;;
18259;SDS011;9256;52.236;5.712;2024-03-08T01:18:16;59.73;;;18.93;;
18259;SDS011;9256;52.236;5.712;2024-03-08T01:20:44;55.37;;;18.00;;
18259;SDS011;9256;52.236;5.712;2024-03-08T01:23:11;57.57;;;17.83;;
18259;SDS011;9256;52.236;5.712;2024-03-08T01:25:39;61.43;;;18.83;;
18259;SDS011;9256;52.236;5.712;2024-03-08T01:28:07;63.53;;;19.23;;
18259;SDS011;9256;52.236;5.712;2024-03-08T01:30:34;60.87;;;18.13;;
18259;SDS011;9256;52.236;5.712;2024-03-08T01:33:02;64.47;;;19.33;;
18259;SDS011;9256;52.236;5.712;2024-03-08T01:35:30;63.73;;;18.53;;
18259;SDS011;9256;52.236;5.712;2024-03-08T01:37:56;63.37;;;18.60;;
18259;SDS011;9256;52.236;5.712;2024-03-08T01:40:23;64.07;;;19.37;;
18259;SDS011;9256;52.236;5.712;2024-03-08T01:42:50;60.83;;;18.37;;
18259;SDS011;9256;52.236;5.712;2024-03-08T01:45:20;55.40;;;18.10;;
18259;SDS011;9256;52.236;5.712;2024-03-08T01:47:47;59.07;;;18.93;;
18259;SDS011;9256;52.236;5.712;2024-03-08T01:50:14;59.40;;;18.77;;
18259;SDS011;9256;52.236;5.712;2024-03-08T01:52:42;62.60;;;19.53;;
18259;SDS011;9256;52.236;5.712;2024-03-08T01:55:10;63.20;;;18.70;;
18259;SDS011;9256;52.236;5.712;2024-03-08T01:57:39;56.63;;;18.67;;
18259;SDS011;9256;52.236;5.712;2024-03-08T02:00:07;58.10;;;18.13;;
18259;SDS011;9256;52.236;5.712;2024-03-08T02:02:38;62.93;;;19.00;;
18259;SDS011;9256;52.236;5.712;2024-03-08T02:05:08;61.57;;;19.23;;
18259;SDS011;9256;52.236;5.712;2024-03-08T02:07:35;61.10;;;18.93;;
18259;SDS011;9256;52.236;5.712;2024-03-08T02:10:03;62.50;;;18.80;;
18259;SDS011;9256;52.236;5.712;2024-03-08T02:12:30;65.23;;;19.30;;
18259;SDS011;9256;52.236;5.712;2024-03-08T02:14:57;60.47;;;19.43;;
18259;SDS011;9256;52.236;5.712;2024-03-08T02:17:24;62.53;;;18.90;;
18259;SDS011;9256;52.236;5.712;2024-03-08T02:19:53;59.03;;;18.73;;
18259;SDS011;9256;52.236;5.712;2024-03-08T02:22:21;58.20;;;19.17;;
18259;SDS011;9256;52.236;5.712;2024-03-08T02:24:48;59.10;;;18.97;;
18259;SDS011;9256;52.236;5.712;2024-03-08T02:27:15;61.90;;;18.70;;
18259;SDS011;9256;52.236;5.712;2024-03-08T02:29:50;53.80;;;18.60;;
18259;SDS011;9256;52.236;5.712;2024-03-08T02:32:20;60.67;;;19.23;;
18259;SDS011;9256;52.236;5.712;2024-03-08T02:34:47;67.00;;;19.40;;
18259;SDS011;9256;52.236;5.712;2024-03-08T02:37:15;61.07;;;18.77;;
18259;SDS011;9256;52.236;5.712;2024-03-08T02:39:43;53.97;;;18.10;;
18259;SDS011;9256;52.236;5.712;2024-03-08T02:42:11;57.97;;;18.60;;
18259;SDS011;9256;52.236;5.712;2024-03-08T02:44:39;57.33;;;18.60;;
18259;SDS011;9256;52.236;5.712;2024-03-08T02:47:09;54.90;;;18.77;;
18259;SDS011;9256;52.236;5.712;2024-03-08T02:49:36;61.70;;;20.27;;
18259;SDS011;9256;52.236;5.712;2024-03-08T02:52:03;64.10;;;19.87;;
18259;SDS011;9256;52.236;5.712;2024-03-08T02:54:32;61.20;;;19.37;;
18259;SDS011;9256;52.236;5.712;2024-03-08T02:57:01;60.53;;;18.83;;
18259;SDS011;9256;52.236;5.712;2024-03-08T02:59:29;62.43;;;19.47;;
18259;SDS011;9256;52.236;5.712;2024-03-08T03:01:56;60.60;;;19.47;;
18259;SDS011;9256;52.236;5.712;2024-03-08T03:04:23;64.70;;;20.17;;
18259;SDS011;9256;52.236;5.712;2024-03-08T03:06:50;60.63;;;19.20;;
18259;SDS011;9256;52.236;5.712;2024-03-08T03:09:16;58.93;;;18.97;;
18259;SDS011;9256;52.236;5.712;2024-03-08T03:11:48;60.03;;;19.63;;
18259;SDS011;9256;52.236;5.712;2024-03-08T03:14:17;64.57;;;20.33;;
18259;SDS011;9256;52.236;5.712;2024-03-08T03:16:44;62.07;;;21.13;;
18259;SDS011;9256;52.236;5.712;2024-03-08T03:19:11;62.30;;;20.10;;
18259;SDS011;9256;52.236;5.712;2024-03-08T03:21:38;65.43;;;20.60;;
18259;SDS011;9256;52.236;5.712;2024-03-08T03:24:05;63.70;;;20.67;;
18259;SDS011;9256;52.236;5.712;2024-03-08T03:26:35;70.32;;;28.83;;
18259;SDS011;9256;52.236;5.712;2024-03-08T03:29:04;65.83;;;22.77;;
18259;SDS011;9256;52.236;5.712;2024-03-08T03:31:35;65.30;;;21.37;;
18259;SDS011;9256;52.236;5.712;2024-03-08T03:34:02;59.13;;;20.73;;
18259;SDS011;9256;52.236;5.712;2024-03-08T03:36:29;64.13;;;21.20;;
18259;SDS011;9256;52.236;5.712;2024-03-08T03:38:57;65.20;;;21.07;;
18259;SDS011;9256;52.236;5.712;2024-03-08T03:41:35;66.90;;;21.17;;
18259;SDS011;9256;52.236;5.712;2024-03-08T03:44:03;62.37;;;20.80;;
18259;SDS011;9256;52.236;5.712;2024-03-08T03:46:31;64.93;;;21.13;;
18259;SDS011;9256;52.236;5.712;2024-03-08T03:49:00;59.53;;;20.07;;
18259;SDS011;9256;52.236;5.712;2024-03-08T03:51:28;62.57;;;20.90;;
18259;SDS011;9256;52.236;5.712;2024-03-08T03:53:55;62.13;;;20.40;;
18259;SDS011;9256;52.236;5.712;2024-03-08T03:56:24;68.33;;;21.20;;
18259;SDS011;9256;52.236;5.712;2024-03-08T03:58:52;61.80;;;20.23;;
18259;SDS011;9256;52.236;5.712;2024-03-08T04:01:19;66.80;;;20.90;;
18259;SDS011;9256;52.236;5.712;2024-03-08T04:03:46;60.50;;;20.43;;
18259;SDS011;9256;52.236;5.712;2024-03-08T04:06:15;63.13;;;20.57;;
18259;SDS011;9256;52.236;5.712;2024-03-08T04:08:42;61.10;;;20.67;;
18259;SDS011;9256;52.236;5.712;2024-03-08T04:11:08;58.50;;;20.42;;
18259;SDS011;9256;52.236;5.712;2024-03-08T04:13:35;61.37;;;21.10;;
18259;SDS011;9256;52.236;5.712;2024-03-08T04:16:03;64.37;;;21.03;;
18259;SDS011;9256;52.236;5.712;2024-03-08T04:18:33;60.47;;;21.17;;
18259;SDS011;9256;52.236;5.712;2024-03-08T04:21:03;58.67;;;19.70;;
18259;SDS011;9256;52.236;5.712;2024-03-08T04:23:34;59.67;;;20.07;;
18259;SDS011;9256;52.236;5.712;2024-03-08T04:26:01;65.77;;;20.47;;
18259;SDS011;9256;52.236;5.712;2024-03-08T04:28:29;60.20;;;20.80;;
18259;SDS011;9256;52.236;5.712;2024-03-08T04:30:56;59.13;;;19.97;;
18259;SDS011;9256;52.236;5.712;2024-03-08T04:33:25;68.10;;;21.53;;
18259;SDS011;9256;52.236;5.712;2024-03-08T04:35:53;62.13;;;20.20;;
18259;SDS011;9256;52.236;5.712;2024-03-08T04:38:20;60.87;;;20.13;;
18259;SDS011;9256;52.236;5.712;2024-03-08T04:40:48;63.87;;;20.73;;
18259;SDS011;9256;52.236;5.712;2024-03-08T04:43:16;59.00;;;20.83;;
18259;SDS011;9256;52.236;5.712;2024-03-08T04:45:43;60.43;;;20.77;;
18259;SDS011;9256;52.236;5.712;2024-03-08T04:48:10;58.47;;;20.50;;
18259;SDS011;9256;52.236;5.712;2024-03-08T04:50:37;59.90;;;19.90;;
18259;SDS011;9256;52.236;5.712;2024-03-08T04:53:05;59.37;;;21.03;;
18259;SDS011;9256;52.236;5.712;2024-03-08T04:55:33;62.63;;;20.63;;
18259;SDS011;9256;52.236;5.712;2024-03-08T04:58:01;60.83;;;21.00;;
18259;SDS011;9256;52.236;5.712;2024-03-08T05:00:30;59.97;;;19.80;;
18259;SDS011;9256;52.236;5.712;2024-03-08T05:02:57;66.33;;;21.90;;
18259;SDS011;9256;52.236;5.712;2024-03-08T05:05:24;57.37;;;20.97;;
18259;SDS011;9256;52.236;5.712;2024-03-08T05:07:53;66.13;;;20.87;;
18259;SDS011;9256;52.236;5.712;2024-03-08T05:10:20;59.50;;;20.87;;
18259;SDS011;9256;52.236;5.712;2024-03-08T05:12:47;62.73;;;20.97;;
18259;SDS011;9256;52.236;5.712;2024-03-08T05:15:16;63.83;;;21.33;;
18259;SDS011;9256;52.236;5.712;2024-03-08T05:17:43;61.10;;;22.37;;
18259;SDS011;9256;52.236;5.712;2024-03-08T05:20:10;65.37;;;21.20;;
18259;SDS011;9256;52.236;5.712;2024-03-08T05:22:38;60.57;;;20.47;;
18259;SDS011;9256;52.236;5.712;2024-03-08T05:25:06;60.53;;;20.33;;
18259;SDS011;9256;52.236;5.712;2024-03-08T05:27:34;57.77;;;21.00;;
18259;SDS011;9256;52.236;5.712;2024-03-08T05:30:01;60.57;;;20.97;;
18259;SDS011;9256;52.236;5.712;2024-03-08T05:32:31;71.68;;;31.02;;
18259;SDS011;9256;52.236;5.712;2024-03-08T05:34:58;64.93;;;23.43;;
18259;SDS011;9256;52.236;5.712;2024-03-08T05:37:25;58.83;;;21.33;;
18259;SDS011;9256;52.236;5.712;2024-03-08T05:39:52;63.10;;;21.00;;
18259;SDS011;9256;52.236;5.712;2024-03-08T05:42:20;59.33;;;20.63;;
18259;SDS011;9256;52.236;5.712;2024-03-08T05:44:47;63.23;;;20.80;;
18259;SDS011;9256;52.236;5.712;2024-03-08T05:47:14;59.83;;;20.60;;
18259;SDS011;9256;52.236;5.712;2024-03-08T05:49:44;61.97;;;20.70;;
18259;SDS011;9256;52.236;5.712;2024-03-08T05:52:11;61.20;;;21.88;;
18259;SDS011;9256;52.236;5.712;2024-03-08T05:54:39;59.05;;;21.20;;
18259;SDS011;9256;52.236;5.712;2024-03-08T05:57:07;63.87;;;20.63;;
18259;SDS011;9256;52.236;5.712;2024-03-08T05:59:34;56.03;;;20.23;;
18259;SDS011;9256;52.236;5.712;2024-03-08T06:02:01;58.80;;;20.57;;
18259;SDS011;9256;52.236;5.712;2024-03-08T06:04:28;61.67;;;22.13;;
18259;SDS011;9256;52.236;5.712;2024-03-08T06:06:57;63.23;;;21.60;;
18259;SDS011;9256;52.236;5.712;2024-03-08T06:09:24;61.77;;;20.87;;
18259;SDS011;9256;52.236;5.712;2024-03-08T06:11:51;62.93;;;21.63;;
18259;SDS011;9256;52.236;5.712;2024-03-08T06:14:19;62.20;;;21.20;;
18259;SDS011;9256;52.236;5.712;2024-03-08T06:16:46;59.80;;;21.23;;
18259;SDS011;9256;52.236;5.712;2024-03-08T06:19:15;60.37;;;21.00;;
18259;SDS011;9256;52.236;5.712;2024-03-08T06:21:42;61.40;;;21.93;;
18259;SDS011;9256;52.236;5.712;2024-03-08T06:24:10;62.40;;;21.97;;
18259;SDS011;9256;52.236;5.712;2024-03-08T06:26:37;62.13;;;22.07;;
18259;SDS011;9256;52.236;5.712;2024-03-08T06:29:04;68.37;;;23.23;;
18259;SDS011;9256;52.236;5.712;2024-03-08T06:31:32;65.00;;;22.47;;
18259;SDS011;9256;52.236;5.712;2024-03-08T06:34:04;62.37;;;21.30;;
18259;SDS011;9256;52.236;5.712;2024-03-08T06:36:33;61.63;;;21.07;;
18259;SDS011;9256;52.236;5.712;2024-03-08T06:38:59;67.87;;;22.63;;
18259;SDS011;9256;52.236;5.712;2024-03-08T06:41:32;70.90;;;22.90;;
18259;SDS011;9256;52.236;5.712;2024-03-08T06:43:59;64.27;;;22.43;;
18259;SDS011;9256;52.236;5.712;2024-03-08T06:46:26;66.97;;;22.57;;
18259;SDS011;9256;52.236;5.712;2024-03-08T06:48:53;65.23;;;22.57;;
18259;SDS011;9256;52.236;5.712;2024-03-08T06:51:21;72.83;;;24.37;;
18259;SDS011;9256;52.236;5.712;2024-03-08T06:53:49;77.00;;;23.33;;
18259;SDS011;9256;52.236;5.712;2024-03-08T06:56:18;71.17;;;23.63;;
18259;SDS011;9256;52.236;5.712;2024-03-08T06:58:47;68.40;;;22.17;;
18259;SDS011;9256;52.236;5.712;2024-03-08T07:01:14;66.63;;;22.63;;
18259;SDS011;9256;52.236;5.712;2024-03-08T07:03:42;67.33;;;23.67;;
18259;SDS011;9256;52.236;5.712;2024-03-08T07:06:12;76.13;;;24.13;;
18259;SDS011;9256;52.236;5.712;2024-03-08T07:08:40;72.67;;;23.10;;
18259;SDS011;9256;52.236;5.712;2024-03-08T07:11:11;70.53;;;22.80;;
18259;SDS011;9256;52.236;5.712;2024-03-08T07:13:43;64.80;;;22.47;;
18259;SDS011;9256;52.236;5.712;2024-03-08T07:16:11;69.70;;;23.50;;
18259;SDS011;9256;52.236;5.712;2024-03-08T07:18:39;70.50;;;23.10;;
18259;SDS011;9256;52.236;5.712;2024-03-08T07:21:08;72.90;;;23.93;;
18259;SDS011;9256;52.236;5.712;2024-03-08T07:23:35;70.47;;;22.80;;
18259;SDS011;9256;52.236;5.712;2024-03-08T07:26:29;71.60;;;23.37;;
18259;SDS011;9256;52.236;5.712;2024-03-08T07:28:56;72.00;;;23.27;;
18259;SDS011;9256;52.236;5.712;2024-03-08T07:31:27;67.73;;;22.83;;
18259;SDS011;9256;52.236;5.712;2024-03-08T07:34:09;65.03;;;22.47;;
18259;SDS011;9256;52.236;5.712;2024-03-08T07:36:36;67.57;;;23.13;;
18259;SDS011;9256;52.236;5.712;2024-03-08T07:39:03;63.80;;;22.47;;
18259;SDS011;9256;52.236;5.712;2024-03-08T07:41:36;64.60;;;22.23;;
18259;SDS011;9256;52.236;5.712;2024-03-08T07:44:05;63.70;;;22.27;;
18259;SDS011;9256;52.236;5.712;2024-03-08T07:46:33;61.93;;;22.00;;
18259;SDS011;9256;52.236;5.712;2024-03-08T07:49:02;64.67;;;22.73;;
18259;SDS011;9256;52.236;5.712;2024-03-08T07:51:29;62.47;;;21.83;;
18259;SDS011;9256;52.236;5.712;2024-03-08T07:53:56;65.80;;;22.67;;
18259;SDS011;9256;52.236;5.712;2024-03-08T07:56:24;64.50;;;23.30;;
18259;SDS011;9256;52.236;5.712;2024-03-08T07:58:51;60.57;;;22.13;;
18259;SDS011;9256;52.236;5.712;2024-03-08T08:01:19;60.10;;;21.80;;
18259;SDS011;9256;52.236;5.712;2024-03-08T08:03:47;65.80;;;25.98;;
18259;SDS011;9256;52.236;5.712;2024-03-08T08:06:14;59.20;;;22.03;;
18259;SDS011;9256;52.236;5.712;2024-03-08T08:08:42;62.33;;;22.83;;
18259;SDS011;9256;52.236;5.712;2024-03-08T08:11:09;60.67;;;22.10;;
18259;SDS011;9256;52.236;5.712;2024-03-08T08:13:37;62.73;;;22.67;;
18259;SDS011;9256;52.236;5.712;2024-03-08T08:16:04;60.87;;;21.67;;
18259;SDS011;9256;52.236;5.712;2024-03-08T08:18:32;63.77;;;22.07;;
18259;SDS011;9256;52.236;5.712;2024-03-08T08:21:01;60.13;;;21.83;;
18259;SDS011;9256;52.236;5.712;2024-03-08T08:23:31;58.53;;;21.07;;
18259;SDS011;9256;52.236;5.712;2024-03-08T08:25:58;53.87;;;21.10;;
18259;SDS011;9256;52.236;5.712;2024-03-08T08:28:28;62.17;;;26.83;;
18259;SDS011;9256;52.236;5.712;2024-03-08T08:30:56;58.10;;;22.80;;
18259;SDS011;9256;52.236;5.712;2024-03-08T08:33:24;56.73;;;22.30;;
18259;SDS011;9256;52.236;5.712;2024-03-08T08:35:52;57.23;;;21.63;;
18259;SDS011;9256;52.236;5.712;2024-03-08T08:38:21;56.23;;;20.93;;
18259;SDS011;9256;52.236;5.712;2024-03-08T08:40:48;57.13;;;21.63;;
18259;SDS011;9256;52.236;5.712;2024-03-08T08:43:15;57.43;;;21.83;;
18259;SDS011;9256;52.236;5.712;2024-03-08T08:45:44;60.20;;;21.97;;
18259;SDS011;9256;52.236;5.712;2024-03-08T08:48:12;51.50;;;20.97;;
18259;SDS011;9256;52.236;5.712;2024-03-08T08:50:39;58.23;;;20.83;;
18259;SDS011;9256;52.236;5.712;2024-03-08T08:53:06;58.73;;;21.87;;
18259;SDS011;9256;52.236;5.712;2024-03-08T08:55:35;56.83;;;22.13;;
18259;SDS011;9256;52.236;5.712;2024-03-08T08:58:02;55.77;;;20.53;;
18259;SDS011;9256;52.236;5.712;2024-03-08T09:00:29;54.57;;;21.37;;
18259;SDS011;9256;52.236;5.712;2024-03-08T09:02:56;57.60;;;25.85;;
18259;SDS011;9256;52.236;5.712;2024-03-08T09:05:24;50.30;;;20.97;;
18259;SDS011;9256;52.236;5.712;2024-03-08T09:07:51;52.73;;;20.63;;
18259;SDS011;9256;52.236;5.712;2024-03-08T09:10:19;57.00;;;21.50;;
18259;SDS011;9256;52.236;5.712;2024-03-08T09:12:48;53.50;;;20.93;;
18259;SDS011;9256;52.236;5.712;2024-03-08T09:15:15;52.50;;;20.23;;
18259;SDS011;9256;52.236;5.712;2024-03-08T09:17:42;51.33;;;22.13;;
18259;SDS011;9256;52.236;5.712;2024-03-08T09:20:10;51.73;;;21.00;;
18259;SDS011;9256;52.236;5.712;2024-03-08T09:22:40;50.10;;;20.40;;
18259;SDS011;9256;52.236;5.712;2024-03-08T09:25:07;48.20;;;19.87;;
18259;SDS011;9256;52.236;5.712;2024-03-08T09:27:35;52.83;;;19.87;;
18259;SDS011;9256;52.236;5.712;2024-03-08T09:30:03;51.03;;;19.90;;
18259;SDS011;9256;52.236;5.712;2024-03-08T09:32:32;48.57;;;19.30;;
18259;SDS011;9256;52.236;5.712;2024-03-08T09:34:59;48.53;;;19.20;;
18259;SDS011;9256;52.236;5.712;2024-03-08T09:37:26;51.00;;;20.03;;
18259;SDS011;9256;52.236;5.712;2024-03-08T09:39:53;49.00;;;20.00;;
18259;SDS011;9256;52.236;5.712;2024-03-08T09:42:20;47.87;;;19.60;;
18259;SDS011;9256;52.236;5.712;2024-03-08T09:44:47;48.73;;;19.27;;
18259;SDS011;9256;52.236;5.712;2024-03-08T09:47:16;48.80;;;19.57;;
18259;SDS011;9256;52.236;5.712;2024-03-08T09:49:44;49.97;;;18.53;;
18259;SDS011;9256;52.236;5.712;2024-03-08T09:52:11;52.37;;;19.47;;
18259;SDS011;9256;52.236;5.712;2024-03-08T09:54:39;47.73;;;18.93;;
18259;SDS011;9256;52.236;5.712;2024-03-08T09:57:09;43.13;;;18.53;;
18259;SDS011;9256;52.236;5.712;2024-03-08T09:59:37;49.53;;;18.83;;
18259;SDS011;9256;52.236;5.712;2024-03-08T10:02:17;47.20;;;18.90;;
18259;SDS011;9256;52.236;5.712;2024-03-08T10:04:44;45.23;;;18.87;;
18259;SDS011;9256;52.236;5.712;2024-03-08T10:07:14;48.13;;;19.57;;
18259;SDS011;9256;52.236;5.712;2024-03-08T10:09:41;47.80;;;19.40;;
18259;SDS011;9256;52.236;5.712;2024-03-08T10:12:12;42.77;;;19.03;;
18259;SDS011;9256;52.236;5.712;2024-03-08T10:14:40;48.88;;;18.70;;
18259;SDS011;9256;52.236;5.712;2024-03-08T10:17:08;41.97;;;17.92;;
18259;SDS011;9256;52.236;5.712;2024-03-08T10:19:37;41.90;;;18.47;;
18259;SDS011;9256;52.236;5.712;2024-03-08T10:22:04;42.63;;;17.95;;
18259;SDS011;9256;52.236;5.712;2024-03-08T10:24:31;46.17;;;17.75;;
18259;SDS011;9256;52.236;5.712;2024-03-08T10:27:00;40.85;;;17.70;;
18259;SDS011;9256;52.236;5.712;2024-03-08T10:29:30;40.65;;;17.83;;
18259;SDS011;9256;52.236;5.712;2024-03-08T10:31:57;42.78;;;17.42;;
18259;SDS011;9256;52.236;5.712;2024-03-08T10:34:24;42.35;;;17.45;;
18259;SDS011;9256;52.236;5.712;2024-03-08T10:36:53;39.50;;;17.27;;
18259;SDS011;9256;52.236;5.712;2024-03-08T10:39:29;39.67;;;17.25;;
18259;SDS011;9256;52.236;5.712;2024-03-08T10:42:02;38.70;;;17.35;;
18259;SDS011;9256;52.236;5.712;2024-03-08T10:44:33;44.25;;;19.10;;
18259;SDS011;9256;52.236;5.712;2024-03-08T10:47:17;41.38;;;17.80;;
18259;SDS011;9256;52.236;5.712;2024-03-08T10:49:54;43.08;;;18.05;;
18259;SDS011;9256;52.236;5.712;2024-03-08T10:52:30;39.53;;;17.33;;
18259;SDS011;9256;52.236;5.712;2024-03-08T10:54:57;39.60;;;17.38;;
18259;SDS011;9256;52.236;5.712;2024-03-08T10:57:25;39.33;;;16.88;;
18259;SDS011;9256;52.236;5.712;2024-03-08T10:59:53;40.92;;;18.42;;
18259;SDS011;9256;52.236;5.712;2024-03-08T11:02:23;37.83;;;16.92;;
18259;SDS011;9256;52.236;5.712;2024-03-08T11:04:53;35.35;;;16.38;;
18259;SDS011;9256;52.236;5.712;2024-03-08T11:07:21;37.63;;;17.17;;
18259;SDS011;9256;52.236;5.712;2024-03-08T11:09:51;37.17;;;16.15;;
18259;SDS011;9256;52.236;5.712;2024-03-08T11:12:19;38.38;;;17.00;;
18259;SDS011;9256;52.236;5.712;2024-03-08T11:14:50;42.45;;;17.73;;
18259;SDS011;9256;52.236;5.712;2024-03-08T11:17:22;36.20;;;17.05;;
18259;SDS011;9256;52.236;5.712;2024-03-08T11:19:52;38.00;;;17.10;;
18259;SDS011;9256;52.236;5.712;2024-03-08T11:22:27;36.55;;;16.55;;
18259;SDS011;9256;52.236;5.712;2024-03-08T11:24:59;34.58;;;16.55;;
18259;SDS011;9256;52.236;5.712;2024-03-08T11:27:33;39.03;;;16.10;;
18259;SDS011;9256;52.236;5.712;2024-03-08T11:30:02;36.47;;;15.98;;
18259;SDS011;9256;52.236;5.712;2024-03-08T11:32:36;32.90;;;15.18;;
18259;SDS011;9256;52.236;5.712;2024-03-08T11:35:05;33.42;;;15.02;;
18259;SDS011;9256;52.236;5.712;2024-03-08T11:37:35;33.85;;;16.02;;
18259;SDS011;9256;52.236;5.712;2024-03-08T11:40:11;33.00;;;16.02;;
18259;SDS011;9256;52.236;5.712;2024-03-08T11:42:43;32.90;;;15.40;;
18259;SDS011;9256;52.236;5.712;2024-03-08T11:45:12;33.30;;;15.32;;
18259;SDS011;9256;52.236;5.712;2024-03-08T11:47:39;35.50;;;16.02;;
18259;SDS011;9256;52.236;5.712;2024-03-08T11:50:11;35.25;;;16.35;;
18259;SDS011;9256;52.236;5.712;2024-03-08T11:52:38;32.08;;;15.00;;
18259;SDS011;9256;52.236;5.712;2024-03-08T11:55:07;31.88;;;14.98;;
18259;SDS011;9256;52.236;5.712;2024-03-08T11:57:34;35.10;;;15.07;;
18259;SDS011;9256;52.236;5.712;2024-03-08T12:00:03;29.83;;;14.25;;
18259;SDS011;9256;52.236;5.712;2024-03-08T12:02:32;32.60;;;14.50;;
18259;SDS011;9256;52.236;5.712;2024-03-08T12:05:03;32.15;;;14.13;;
18259;SDS011;9256;52.236;5.712;2024-03-08T12:07:34;29.60;;;13.93;;
18259;SDS011;9256;52.236;5.712;2024-03-08T12:10:19;33.97;;;14.75;;
18259;SDS011;9256;52.236;5.712;2024-03-08T12:12:48;36.75;;;14.40;;
18259;SDS011;9256;52.236;5.712;2024-03-08T12:15:16;32.60;;;13.85;;
18259;SDS011;9256;52.236;5.712;2024-03-08T12:17:44;29.35;;;13.60;;
18259;SDS011;9256;52.236;5.712;2024-03-08T12:20:15;33.75;;;14.52;;
18259;SDS011;9256;52.236;5.712;2024-03-08T12:22:43;28.75;;;13.65;;
18259;SDS011;9256;52.236;5.712;2024-03-08T12:25:11;31.53;;;15.87;;
18259;SDS011;9256;52.236;5.712;2024-03-08T12:27:40;29.65;;;14.10;;
18259;SDS011;9256;52.236;5.712;2024-03-08T12:30:15;29.67;;;13.88;;
18259;SDS011;9256;52.236;5.712;2024-03-08T12:32:48;28.33;;;13.23;;
18259;SDS011;9256;52.236;5.712;2024-03-08T12:35:20;27.08;;;12.98;;
18259;SDS011;9256;52.236;5.712;2024-03-08T12:37:48;30.63;;;13.77;;
18259;SDS011;9256;52.236;5.712;2024-03-08T12:40:16;28.08;;;14.55;;
18259;SDS011;9256;52.236;5.712;2024-03-08T12:42:45;26.38;;;12.98;;
18259;SDS011;9256;52.236;5.712;2024-03-08T12:45:13;29.10;;;13.43;;
18259;SDS011;9256;52.236;5.712;2024-03-08T12:47:41;24.73;;;12.45;;
18259;SDS011;9256;52.236;5.712;2024-03-08T12:50:09;26.60;;;12.85;;
18259;SDS011;9256;52.236;5.712;2024-03-08T12:52:37;28.17;;;13.05;;
18259;SDS011;9256;52.236;5.712;2024-03-08T12:55:04;29.58;;;12.90;;
18259;SDS011;9256;52.236;5.712;2024-03-08T12:57:34;28.17;;;13.75;;
18259;SDS011;9256;52.236;5.712;2024-03-08T13:00:02;27.30;;;13.07;;
18259;SDS011;9256;52.236;5.712;2024-03-08T13:02:31;25.83;;;12.90;;
18259;SDS011;9256;52.236;5.712;2024-03-08T13:04:58;27.00;;;13.15;;
18259;SDS011;9256;52.236;5.712;2024-03-08T13:07:25;28.42;;;15.30;;
18259;SDS011;9256;52.236;5.712;2024-03-08T13:09:52;27.60;;;13.35;;
18259;SDS011;9256;52.236;5.712;2024-03-08T13:12:20;29.63;;;13.75;;
18259;SDS011;9256;52.236;5.712;2024-03-08T13:14:49;25.60;;;13.40;;
18259;SDS011;9256;52.236;5.712;2024-03-08T13:17:17;28.58;;;13.52;;
18259;SDS011;9256;52.236;5.712;2024-03-08T13:19:44;30.58;;;14.43;;
18259;SDS011;9256;52.236;5.712;2024-03-08T13:22:11;27.70;;;13.70;;
18259;SDS011;9256;52.236;5.712;2024-03-08T13:24:41;30.92;;;13.93;;
18259;SDS011;9256;52.236;5.712;2024-03-08T13:27:10;28.60;;;13.80;;
18259;SDS011;9256;52.236;5.712;2024-03-08T13:29:45;28.55;;;13.57;;
18259;SDS011;9256;52.236;5.712;2024-03-08T13:32:13;31.03;;;15.90;;
18259;SDS011;9256;52.236;5.712;2024-03-08T13:34:42;29.80;;;15.25;;
18259;SDS011;9256;52.236;5.712;2024-03-08T13:37:10;29.10;;;14.27;;
18259;SDS011;9256;52.236;5.712;2024-03-08T13:39:37;28.35;;;13.57;;
18259;SDS011;9256;52.236;5.712;2024-03-08T13:42:09;27.63;;;14.00;;
18259;SDS011;9256;52.236;5.712;2024-03-08T13:44:38;31.02;;;14.63;;
18259;SDS011;9256;52.236;5.712;2024-03-08T13:47:09;29.95;;;14.20;;
18259;SDS011;9256;52.236;5.712;2024-03-08T13:49:37;29.23;;;13.70;;
18259;SDS011;9256;52.236;5.712;2024-03-08T13:52:05;28.75;;;13.63;;
18259;SDS011;9256;52.236;5.712;2024-03-08T13:54:34;30.42;;;14.38;;
18259;SDS011;9256;52.236;5.712;2024-03-08T13:57:01;32.47;;;14.40;;
18259;SDS011;9256;52.236;5.712;2024-03-08T13:59:29;29.33;;;13.98;;
18259;SDS011;9256;52.236;5.712;2024-03-08T14:01:58;30.63;;;14.35;;
18259;SDS011;9256;52.236;5.712;2024-03-08T14:04:26;28.90;;;14.02;;
18259;SDS011;9256;52.236;5.712;2024-03-08T14:06:54;28.33;;;13.93;;
18259;SDS011;9256;52.236;5.712;2024-03-08T14:09:28;28.27;;;13.25;;
18259;SDS011;9256;52.236;5.712;2024-03-08T14:11:56;27.73;;;13.73;;
18259;SDS011;9256;52.236;5.712;2024-03-08T14:14:23;26.95;;;13.75;;
18259;SDS011;9256;52.236;5.712;2024-03-08T14:16:50;27.27;;;13.98;;
18259;SDS011;9256;52.236;5.712;2024-03-08T14:19:20;25.75;;;13.65;;
18259;SDS011;9256;52.236;5.712;2024-03-08T14:21:47;29.38;;;14.18;;
18259;SDS011;9256;52.236;5.712;2024-03-08T14:24:14;27.75;;;13.27;;
18259;SDS011;9256;52.236;5.712;2024-03-08T14:26:43;24.33;;;12.90;;
18259;SDS011;9256;52.236;5.712;2024-03-08T14:29:11;26.67;;;13.32;;
18259;SDS011;9256;52.236;5.712;2024-03-08T14:31:38;26.77;;;12.82;;
18259;SDS011;9256;52.236;5.712;2024-03-08T14:34:06;29.45;;;13.23;;
18259;SDS011;9256;52.236;5.712;2024-03-08T14:36:34;27.42;;;13.13;;
18259;SDS011;9256;52.236;5.712;2024-03-08T14:39:01;24.17;;;12.63;;
18259;SDS011;9256;52.236;5.712;2024-03-08T14:41:28;24.10;;;11.93;;